首页
METAR-TAF:

METAR-TAF

机场 :

Chibougamau, 魁北克, 加拿大

纬度: 49-46N, 经度: 074-32W, 海拔: 388米

当前天气观测

该预报发布于51分钟前的06:00 UTC
风速5节,风向东转东南
温度 -6°C
湿度 93%
气压 1011 hPa
能見度: 14.5公里
散云层高于18000英尺
多云层高于24000英尺

METAR: CYMT 160600Z AUTO 11005KT 9SM SCT180 BKN240 M06/M07 A2985 RMK SLP133

时间: 01:51 (06:51 UTC)

预报

该预报发布于12小时和59分钟前的17:52 UTC
预报有效从15日的 18点(UTC)到 16日的 01点(UTC)
风速5节,风向南转南东
能見度: 10公里
阴天层高于2000英尺
小雪
短暂存在
从 15日的 18点(UTC)到 15日的 21点(UTC)
能見度: 10公里
阴天层高于2500英尺
从 15日的 2100点(UTC)
风速8节,风向
能見度: 10公里
阴天层高于2000英尺
短暂存在
从 15日的 21点(UTC)到 16日的 01点(UTC)
阴天层高于2500英尺

TAF: CYMT 151752Z 1518/1601 15005KT P6SM -SN OVC020 TEMPO 1518/1521 P6SM NSW OVC025 FM152100 17008KT P6SM OVC020 TEMPO 1521/1601 OVC025 RMK FCST BASED ON AUTO OBS. NXT FCST WILL BE ISSUED AT 161245Z

超过4000个机场的气象观测和天气预报(METAR&TAF报告)。

可查询的气象台以黄色和红色小点在地图上表示。

将鼠标移到小点上方,可查看气象台名称。

然后点击查看天气观测和预报。

如需切换地图:点击带黑十字的绿色按钮放大地图;点击带横线的绿色按钮缩小地图;或者点击绿色箭头查看邻近地区的地图。


METAR-TAF: